createdAt,value
2022-11-09T00:00:49.171Z,89.97
2022-11-09T00:03:20.726Z,89.78
2022-11-09T00:05:58.620Z,89.76
2022-11-09T00:08:26.507Z,89.95
2022-11-09T00:10:53.321Z,89.96
2022-11-09T00:13:22.108Z,90.04
2022-11-09T00:15:49.183Z,89.99
2022-11-09T00:18:15.752Z,90.14
2022-11-09T00:20:47.763Z,89.92
2022-11-09T00:23:16.489Z,89.86
2022-11-09T00:25:43.482Z,89.99
2022-11-09T00:28:10.157Z,90.01
2022-11-09T00:30:40.802Z,89.98
2022-11-09T00:33:08.913Z,89.98
2022-11-09T00:35:38.270Z,90.04
2022-11-09T00:38:04.968Z,90.02
2022-11-09T00:40:31.691Z,90.29
2022-11-09T00:42:58.356Z,89.99
2022-11-09T00:45:24.998Z,90.05
2022-11-09T00:47:51.591Z,90.13
2022-11-09T00:50:18.310Z,90.13
2022-11-09T00:52:44.903Z,90.07
2022-11-09T00:55:11.549Z,89.97
2022-11-09T00:57:38.160Z,90.10
2022-11-09T01:00:05.432Z,89.98
2022-11-09T01:02:32.128Z,89.83
2022-11-09T01:05:00.099Z,89.91
2022-11-09T01:07:26.797Z,89.76
2022-11-09T01:09:53.388Z,89.74
2022-11-09T01:12:20.011Z,89.87
2022-11-09T01:14:46.678Z,89.76
2022-11-09T01:17:13.301Z,89.61
2022-11-09T01:19:39.945Z,89.59
2022-11-09T01:22:06.551Z,89.69
2022-11-09T01:24:33.198Z,89.55
2022-11-09T01:26:59.836Z,89.60
2022-11-09T01:29:26.478Z,89.47
2022-11-09T01:31:55.432Z,89.64
2022-11-09T01:34:22.298Z,89.52
2022-11-09T01:36:52.677Z,89.46
2022-11-09T01:39:20.276Z,89.43
2022-11-09T01:41:47.906Z,89.40
2022-11-09T01:44:15.875Z,89.16
2022-11-09T01:46:59.795Z,89.44
2022-11-09T01:49:45.480Z,89.34
2022-11-09T01:52:12.042Z,89.23
2022-11-09T01:54:49.167Z,89.34
2022-11-09T01:57:25.669Z,89.30
2022-11-09T01:59:58.251Z,89.30
2022-11-09T02:02:25.006Z,89.29
2022-11-09T02:05:06.049Z,89.30
2022-11-09T02:07:33.825Z,89.30
2022-11-09T02:10:39.558Z,89.28
2022-11-09T02:13:08.441Z,89.30
2022-11-09T02:15:40.158Z,89.36
2022-11-09T02:18:09.684Z,89.33
2022-11-09T02:20:50.829Z,89.34
2022-11-09T02:23:18.756Z,89.58
2022-11-09T02:25:51.490Z,89.29
2022-11-09T02:28:18.746Z,89.32
2022-11-09T02:30:50.412Z,89.58
2022-11-09T02:33:17.307Z,89.63
2022-11-09T02:35:44.330Z,89.59
2022-11-09T02:38:12.264Z,89.51
2022-11-09T02:40:42.652Z,89.43
2022-11-09T02:43:10.797Z,89.72
2022-11-09T02:45:37.653Z,89.59
2022-11-09T02:48:04.714Z,89.73
2022-11-09T02:50:31.341Z,89.80
2022-11-09T02:52:58.021Z,89.92
2022-11-09T02:55:24.652Z,89.99
2022-11-09T02:57:51.285Z,90.13
2022-11-09T03:02:53.741Z,90.38
2022-11-09T03:05:20.402Z,90.31
2022-11-09T03:07:47.073Z,90.35
2022-11-09T03:10:13.710Z,90.43
2022-11-09T03:12:40.340Z,90.71
2022-11-09T03:15:08.787Z,90.65
2022-11-09T03:17:36.114Z,90.59
2022-11-09T03:20:02.858Z,90.72
2022-11-09T03:22:29.512Z,90.72
2022-11-09T03:24:56.215Z,90.74
2022-11-09T03:27:22.824Z,90.87
2022-11-09T03:29:49.532Z,90.87
2022-11-09T03:32:16.141Z,90.95
2022-11-09T03:34:42.815Z,91.02
2022-11-09T03:37:09.541Z,91.14
2022-11-09T03:39:36.177Z,91.06
2022-11-09T03:42:02.862Z,91.16
2022-11-09T03:44:29.486Z,91.15
2022-11-09T03:46:56.154Z,91.10
2022-11-09T03:49:23.923Z,91.23
2022-11-09T03:51:51.250Z,91.14
2022-11-09T03:54:17.930Z,91.21
2022-11-09T03:56:44.633Z,91.28
2022-11-09T03:59:11.378Z,91.44
2022-11-09T04:01:38.141Z,91.41
2022-11-09T04:04:04.999Z,91.27
2022-11-09T04:06:31.739Z,91.39
2022-11-09T04:08:58.385Z,91.42
2022-11-09T04:11:24.972Z,91.61
2022-11-09T04:13:51.603Z,91.60
2022-11-09T04:16:18.237Z,91.69
2022-11-09T04:18:44.878Z,91.62
2022-11-09T04:21:11.475Z,91.61
2022-11-09T04:23:38.233Z,91.58
2022-11-09T04:26:04.949Z,91.63
2022-11-09T04:28:31.592Z,91.63
2022-11-09T04:31:01.918Z,91.54
2022-11-09T04:33:28.762Z,91.53
2022-11-09T04:36:04.878Z,91.68
2022-11-09T04:38:32.216Z,91.80
2022-11-09T04:41:03.568Z,91.64
2022-11-09T04:43:30.217Z,91.86
2022-11-09T04:46:00.452Z,91.80
2022-11-09T04:48:27.093Z,91.92
2022-11-09T04:51:02.781Z,91.89
2022-11-09T04:53:29.904Z,91.84
2022-11-09T04:55:57.522Z,91.87
2022-11-09T04:58:25.261Z,92.22
2022-11-09T05:00:52.685Z,91.86
2022-11-09T05:03:20.102Z,92.01
2022-11-09T05:05:48.561Z,92.14
2022-11-09T05:08:15.486Z,92.07
2022-11-09T05:10:42.125Z,91.90
2022-11-09T05:13:11.473Z,91.86
2022-11-09T05:15:38.357Z,91.82
2022-11-09T05:18:05.907Z,91.66
2022-11-09T05:20:33.021Z,91.38
2022-11-09T05:23:19.276Z,91.31
2022-11-09T05:25:47.129Z,91.31
2022-11-09T05:28:14.427Z,91.03
2022-11-09T05:30:41.250Z,90.91
2022-11-09T05:33:07.910Z,90.75
2022-11-09T05:35:34.521Z,90.59
2022-11-09T05:38:01.140Z,90.45
2022-11-09T05:40:27.816Z,90.48
2022-11-09T05:42:56.112Z,90.33
2022-11-09T05:48:09.969Z,90.10
2022-11-09T05:50:37.381Z,90.10
2022-11-09T05:53:03.999Z,90.01
2022-11-09T05:55:30.790Z,90.16
2022-11-09T05:57:57.404Z,90.13
2022-11-09T06:00:24.144Z,90.21
2022-11-09T06:02:50.975Z,90.08
2022-11-09T06:05:18.374Z,90.26
2022-11-09T06:07:44.981Z,90.41
2022-11-09T06:10:12.046Z,90.42
2022-11-09T06:12:38.643Z,90.56
2022-11-09T06:15:06.118Z,90.81
2022-11-09T06:17:32.879Z,90.97
2022-11-09T06:19:59.463Z,90.90
2022-11-09T06:22:26.068Z,90.85
2022-11-09T06:24:52.672Z,91.15
2022-11-09T06:27:19.337Z,91.29
2022-11-09T06:29:45.996Z,91.36
2022-11-09T06:32:12.600Z,91.42
2022-11-09T06:34:39.213Z,91.35
2022-11-09T06:37:05.869Z,91.29
2022-11-09T06:39:32.496Z,91.33
2022-11-09T06:41:59.072Z,91.46
2022-11-09T06:44:25.689Z,91.37
2022-11-09T06:46:52.272Z,91.29
2022-11-09T06:49:18.880Z,91.37
2022-11-09T06:51:45.502Z,91.19
2022-11-09T06:54:12.176Z,91.23
2022-11-09T06:56:38.772Z,91.17
2022-11-09T06:59:05.485Z,91.23
2022-11-09T07:01:32.188Z,91.21
2022-11-09T07:03:58.806Z,91.10
2022-11-09T07:06:25.494Z,91.17
2022-11-09T07:08:56.075Z,91.18
2022-11-09T07:11:22.753Z,91.16
2022-11-09T07:13:53.459Z,90.86
2022-11-09T07:16:22.955Z,91.20
2022-11-09T07:18:49.595Z,90.99
2022-11-09T07:21:16.266Z,91.29
2022-11-09T07:23:43.530Z,91.24
2022-11-09T07:26:10.213Z,91.15
2022-11-09T07:28:36.843Z,91.15
2022-11-09T07:31:03.746Z,91.12
2022-11-09T07:33:33.347Z,91.16
2022-11-09T07:36:01.663Z,91.13
2022-11-09T07:38:29.355Z,91.24
2022-11-09T07:41:02.865Z,91.08
2022-11-09T07:43:29.943Z,91.11
2022-11-09T07:45:56.761Z,91.29
2022-11-09T07:48:23.611Z,90.95
2022-11-09T07:50:50.506Z,90.91
2022-11-09T07:53:17.622Z,91.16
2022-11-09T07:55:44.612Z,91.04
2022-11-09T07:58:13.453Z,90.90
2022-11-09T08:00:41.870Z,90.87
2022-11-09T08:03:09.324Z,90.86
2022-11-09T08:05:36.335Z,90.65
2022-11-09T08:08:06.275Z,90.56
2022-11-09T08:10:34.276Z,90.19
2022-11-09T08:13:03.589Z,90.18
2022-11-09T08:15:31.154Z,89.73
2022-11-09T08:18:02.779Z,89.50
2022-11-09T08:20:30.344Z,89.39
2022-11-09T08:23:02.323Z,88.99
2022-11-09T08:25:30.257Z,88.77
2022-11-09T08:27:57.447Z,88.46
2022-11-09T08:30:34.056Z,88.33
2022-11-09T08:33:02.709Z,88.19
2022-11-09T08:35:29.885Z,88.33
2022-11-09T08:37:59.874Z,88.38
2022-11-09T08:40:26.693Z,88.30
2022-11-09T08:42:53.831Z,88.20
2022-11-09T08:45:21.045Z,88.53
2022-11-09T08:47:48.247Z,88.73
2022-11-09T08:50:16.152Z,89.14
2022-11-09T08:52:43.136Z,89.33
2022-11-09T08:55:09.892Z,89.94
2022-11-09T08:57:36.565Z,90.16
2022-11-09T09:00:04.699Z,90.57
2022-11-09T09:02:31.304Z,90.63
2022-11-09T09:04:58.006Z,90.69
2022-11-09T09:07:24.778Z,90.94
2022-11-09T09:09:51.467Z,91.15
2022-11-09T09:12:18.910Z,91.39
2022-11-09T09:14:45.546Z,91.49
2022-11-09T09:17:12.228Z,91.28
2022-11-09T09:19:38.820Z,91.75
2022-11-09T09:22:05.968Z,91.95
2022-11-09T09:24:32.767Z,92.03
2022-11-09T09:26:59.475Z,92.11
2022-11-09T09:29:26.922Z,92.12
2022-11-09T09:31:53.573Z,92.50
2022-11-09T09:34:20.247Z,92.50
2022-11-09T09:36:48.450Z,92.55
2022-11-09T09:39:15.738Z,92.69
2022-11-09T09:42:05.432Z,92.77
2022-11-09T09:45:05.736Z,92.95
2022-11-09T09:47:41.678Z,93.03
2022-11-09T09:50:20.784Z,93.48
2022-11-09T09:53:32.767Z,93.58
2022-11-09T09:56:28.565Z,93.39
2022-11-09T09:59:05.257Z,93.32
2022-11-09T10:01:43.803Z,93.22
2022-11-09T10:04:37.396Z,93.33
2022-11-09T10:07:19.356Z,93.27
2022-11-09T10:10:16.939Z,93.32
2022-11-09T10:12:59.213Z,93.51
2022-11-09T10:15:29.719Z,93.55
2022-11-09T10:18:28.375Z,93.82
2022-11-09T10:21:09.952Z,93.80
2022-11-09T10:23:52.678Z,93.98
2022-11-09T10:26:27.528Z,93.99
2022-11-09T10:29:16.051Z,94.16
2022-11-09T10:31:46.657Z,94.17
2022-11-09T10:34:24.113Z,94.24
2022-11-09T10:37:17.131Z,94.40
2022-11-09T10:39:52.752Z,94.42
2022-11-09T10:42:19.368Z,94.43
2022-11-09T10:44:45.982Z,94.11
2022-11-09T10:47:15.034Z,94.45
2022-11-09T10:49:41.676Z,94.49
2022-11-09T10:52:45.921Z,94.41
2022-11-09T10:55:23.385Z,94.37
2022-11-09T10:58:02.467Z,94.39
2022-11-09T11:00:29.821Z,94.41
2022-11-09T11:02:56.916Z,94.26
2022-11-09T11:05:29.226Z,94.30
2022-11-09T11:07:56.181Z,94.24
2022-11-09T11:10:23.400Z,94.15
2022-11-09T11:13:19.842Z,94.15
2022-11-09T11:15:47.360Z,94.19
2022-11-09T11:18:24.126Z,94.04
2022-11-09T11:21:19.860Z,94.11
2022-11-09T11:24:12.638Z,93.87
2022-11-09T11:26:48.192Z,94.06
2022-11-09T11:29:23.580Z,93.96
2022-11-09T11:31:50.295Z,94.04
2022-11-09T11:34:38.386Z,93.95
2022-11-09T11:37:03.637Z,93.78
2022-11-09T11:40:06.333Z,93.68
2022-11-09T11:42:51.063Z,93.68
2022-11-09T11:45:41.690Z,93.68
2022-11-09T11:48:39.641Z,93.67
2022-11-09T11:51:12.430Z,93.47
2022-11-09T11:54:06.436Z,93.33
2022-11-09T11:56:46.702Z,93.09
2022-11-09T11:59:32.160Z,92.84
2022-11-09T12:02:36.386Z,92.57
2022-11-09T12:05:30.735Z,92.33
2022-11-09T12:08:33.310Z,92.26
2022-11-09T12:11:24.771Z,92.17
2022-11-09T12:14:20.680Z,92.18
2022-11-09T12:17:03.600Z,91.84
2022-11-09T12:19:55.393Z,91.71
2022-11-09T12:22:25.059Z,91.70
2022-11-09T12:25:18.476Z,91.15
2022-11-09T12:28:03.438Z,91.37
2022-11-09T12:30:45.757Z,91.04
2022-11-09T12:33:23.966Z,90.71
2022-11-09T12:36:15.569Z,90.43
2022-11-09T12:39:08.369Z,90.22
2022-11-09T12:41:37.360Z,90.12
2022-11-09T12:44:16.929Z,89.70
2022-11-09T12:46:50.251Z,89.00
2022-11-09T12:49:30.278Z,88.74
2022-11-09T12:51:59.094Z,88.73
2022-11-09T12:54:26.729Z,88.16
2022-11-09T12:57:06.678Z,87.35
2022-11-09T12:59:54.128Z,86.98
2022-11-09T13:02:32.639Z,86.87
2022-11-09T13:05:06.008Z,86.08
2022-11-09T13:07:50.690Z,85.72
2022-11-09T13:10:31.541Z,85.72
2022-11-09T13:13:05.968Z,85.22
2022-11-09T13:15:34.646Z,84.70
2022-11-09T13:18:06.083Z,84.23
2022-11-09T13:23:47.742Z,83.86
2022-11-09T13:26:32.578Z,83.58
2022-11-09T13:29:15.902Z,83.59
2022-11-09T13:32:13.914Z,83.33
2022-11-09T13:34:57.124Z,83.14
2022-11-09T13:37:41.783Z,82.93
2022-11-09T13:40:33.077Z,82.70
2022-11-09T13:43:04.412Z,82.62
2022-11-09T13:45:46.426Z,82.39
2022-11-09T13:48:38.098Z,82.27
2022-11-09T13:51:15.679Z,82.36
2022-11-09T13:53:50.968Z,82.19
2022-11-09T13:56:29.517Z,82.11
2022-11-09T13:59:04.362Z,82.02
2022-11-09T14:01:58.041Z,81.98
2022-11-09T14:04:37.824Z,81.56
2022-11-09T14:07:34.109Z,81.50
2022-11-09T14:10:02.035Z,81.67
2022-11-09T14:13:06.711Z,81.35
2022-11-09T14:16:09.048Z,80.75
2022-11-09T14:18:44.877Z,80.63
2022-11-09T14:21:34.857Z,80.44
2022-11-09T14:24:22.662Z,80.68
2022-11-09T14:27:02.491Z,80.57
2022-11-09T14:29:35.794Z,80.45
2022-11-09T14:32:28.757Z,80.66
2022-11-09T14:35:25.554Z,80.69
2022-11-09T14:37:54.407Z,80.71
2022-11-09T14:40:27.859Z,80.87
2022-11-09T14:42:56.486Z,80.92
2022-11-09T14:45:23.969Z,81.05
2022-11-09T14:47:54.236Z,81.12
2022-11-09T14:50:23.946Z,80.93
2022-11-09T14:52:52.877Z,80.96
2022-11-09T14:55:21.308Z,80.92
2022-11-09T14:57:51.568Z,80.92
2022-11-09T15:00:34.590Z,80.82
2022-11-09T15:03:30.451Z,80.83
2022-11-09T15:06:10.973Z,80.90
2022-11-09T15:08:40.455Z,80.69
2022-11-09T15:11:07.813Z,80.69
2022-11-09T15:13:40.179Z,80.90
2022-11-09T15:16:07.822Z,81.02
2022-11-09T15:18:44.752Z,80.98
2022-11-09T15:21:26.487Z,80.69
2022-11-09T15:24:18.053Z,80.73
2022-11-09T15:26:51.225Z,80.64
2022-11-09T15:29:29.064Z,80.79
2022-11-09T15:32:00.330Z,80.61
2022-11-09T15:34:35.946Z,80.55
2022-11-09T15:37:02.710Z,80.43
2022-11-09T15:39:29.580Z,80.61
2022-11-09T15:41:57.789Z,80.75
2022-11-09T15:44:24.519Z,80.75
2022-11-09T15:46:53.081Z,80.63
2022-11-09T15:49:28.833Z,80.86
2022-11-09T15:51:56.113Z,80.91
2022-11-09T15:54:24.101Z,80.81
2022-11-09T15:56:51.489Z,80.94
2022-11-09T15:59:22.798Z,81.10
2022-11-09T16:01:49.677Z,81.13
2022-11-09T16:04:16.309Z,81.19
2022-11-09T16:06:46.545Z,81.18
2022-11-09T16:09:14.161Z,81.16
2022-11-09T16:11:40.816Z,81.19
2022-11-09T16:14:07.691Z,80.94
2022-11-09T16:16:34.455Z,80.73
2022-11-09T16:19:01.074Z,80.88
2022-11-09T16:21:27.688Z,80.84
2022-11-09T16:23:58.471Z,81.02
2022-11-09T16:26:25.901Z,80.67
2022-11-09T16:28:55.103Z,80.59
2022-11-09T16:31:41.069Z,80.74
2022-11-09T16:34:08.494Z,80.73
2022-11-09T16:36:38.298Z,80.75
2022-11-09T16:39:09.441Z,80.89
2022-11-09T16:41:40.768Z,80.78
2022-11-09T16:44:07.630Z,80.85
2022-11-09T16:46:35.145Z,80.81
2022-11-09T16:49:02.657Z,80.57
2022-11-09T16:51:29.991Z,80.85
2022-11-09T16:53:56.604Z,81.09
2022-11-09T16:56:23.244Z,81.04
2022-11-09T16:58:50.026Z,81.31
2022-11-09T17:01:22.058Z,81.59
2022-11-09T17:03:49.835Z,81.70
2022-11-09T17:06:16.500Z,81.80
2022-11-09T17:08:43.177Z,82.19
2022-11-09T17:11:11.620Z,81.97
2022-11-09T17:13:39.327Z,82.13
2022-11-09T17:16:09.285Z,82.01
2022-11-09T17:18:37.785Z,82.07
2022-11-09T17:21:14.910Z,82.02
2022-11-09T17:23:42.772Z,81.95
2022-11-09T17:26:09.977Z,82.07
2022-11-09T17:28:42.501Z,81.91
2022-11-09T17:31:15.405Z,82.18
2022-11-09T17:33:42.236Z,82.18
2022-11-09T17:36:25.924Z,82.14
2022-11-09T17:39:05.224Z,82.29
2022-11-09T17:41:31.851Z,82.24
2022-11-09T17:44:01.535Z,82.37
2022-11-09T17:46:28.197Z,82.52
2022-11-09T17:48:54.936Z,82.43
2022-11-09T17:51:21.653Z,82.41
2022-11-09T17:53:48.361Z,82.31
2022-11-09T17:56:14.968Z,82.24
2022-11-09T17:58:43.392Z,82.44
2022-11-09T18:01:15.466Z,82.60
2022-11-09T18:03:42.522Z,82.72
2022-11-09T18:06:11.871Z,82.64
2022-11-09T18:08:38.512Z,82.81
2022-11-09T18:11:05.306Z,82.96
2022-11-09T18:13:32.007Z,83.00
2022-11-09T18:15:58.885Z,82.91
2022-11-09T18:18:25.569Z,82.94
2022-11-09T18:20:52.269Z,83.16
2022-11-09T18:23:18.882Z,83.07
2022-11-09T18:25:55.963Z,83.33
2022-11-09T18:28:22.886Z,83.40
2022-11-09T18:30:49.733Z,83.50
2022-11-09T18:33:16.351Z,83.57
2022-11-09T18:35:42.939Z,83.50
2022-11-09T18:38:13.092Z,83.68
2022-11-09T18:40:39.963Z,83.69
2022-11-09T18:43:06.551Z,83.87
2022-11-09T18:45:34.707Z,83.85
2022-11-09T18:48:01.442Z,83.93
2022-11-09T18:50:28.469Z,83.82
2022-11-09T18:52:55.130Z,83.87
2022-11-09T18:55:21.783Z,83.88
2022-11-09T18:57:48.458Z,84.02
2022-11-09T19:00:15.560Z,84.00
2022-11-09T19:02:42.464Z,83.96
2022-11-09T19:05:09.455Z,84.27
2022-11-09T19:07:36.125Z,84.31
2022-11-09T19:10:03.090Z,84.43
2022-11-09T19:12:30.340Z,84.56
2022-11-09T19:14:56.939Z,84.68
2022-11-09T19:17:24.031Z,84.62
2022-11-09T19:19:50.664Z,84.69
2022-11-09T19:22:19.123Z,85.05
2022-11-09T19:24:46.473Z,84.96
2022-11-09T19:27:13.513Z,85.28
2022-11-09T19:29:40.191Z,85.22
2022-11-09T19:32:06.966Z,85.29
2022-11-09T19:34:33.606Z,85.49
2022-11-09T19:37:00.432Z,85.70
2022-11-09T19:39:32.578Z,86.00
2022-11-09T19:42:00.500Z,85.76
2022-11-09T19:44:27.095Z,85.99
2022-11-09T19:46:53.857Z,86.06
2022-11-09T19:49:20.620Z,86.18
2022-11-09T19:51:47.210Z,86.20
2022-11-09T19:54:14.457Z,86.33
2022-11-09T19:56:41.153Z,86.53
2022-11-09T19:59:12.849Z,86.88
2022-11-09T20:01:39.586Z,86.96
2022-11-09T20:04:10.090Z,86.88
2022-11-09T20:06:38.884Z,87.12
2022-11-09T20:09:06.070Z,87.36
2022-11-09T20:11:51.651Z,87.46
2022-11-09T20:14:18.602Z,87.58
2022-11-09T20:16:46.925Z,87.81
2022-11-09T20:19:14.237Z,87.88
2022-11-09T20:21:41.332Z,87.84
2022-11-09T20:24:08.765Z,88.08
2022-11-09T20:26:35.543Z,88.23
2022-11-09T20:29:02.224Z,88.04
2022-11-09T20:31:29.707Z,88.43
2022-11-09T20:33:56.854Z,88.48
2022-11-09T20:36:23.841Z,88.60
2022-11-09T20:38:50.491Z,88.78
2022-11-09T20:41:20.520Z,88.78
2022-11-09T20:43:49.634Z,89.07
2022-11-09T20:46:19.698Z,89.09
2022-11-09T20:48:54.015Z,89.20
2022-11-09T20:51:23.834Z,89.23
2022-11-09T20:53:51.086Z,89.58
2022-11-09T20:56:19.333Z,89.81
2022-11-09T20:58:46.141Z,89.82
2022-11-09T21:01:12.848Z,89.90
2022-11-09T21:03:39.904Z,89.93
2022-11-09T21:06:07.669Z,90.06
2022-11-09T21:08:34.741Z,90.17
2022-11-09T21:11:03.119Z,90.30
2022-11-09T21:13:30.085Z,90.67
2022-11-09T21:16:04.486Z,90.70
2022-11-09T21:18:31.217Z,90.87
2022-11-09T21:21:04.894Z,90.99
2022-11-09T21:23:49.899Z,91.30
2022-11-09T21:26:35.464Z,91.44
2022-11-09T21:29:20.471Z,91.32
2022-11-09T21:31:47.104Z,91.68
2022-11-09T21:34:13.801Z,91.78
2022-11-09T21:36:43.087Z,91.81
2022-11-09T21:39:10.904Z,91.81
2022-11-09T21:41:38.701Z,91.72
2022-11-09T21:44:11.664Z,92.13
2022-11-09T21:46:40.112Z,92.38
2022-11-09T21:49:08.200Z,92.29
2022-11-09T21:51:36.861Z,92.55
2022-11-09T21:54:04.098Z,92.49
2022-11-09T21:56:30.744Z,92.80
2022-11-09T21:58:57.470Z,92.97
2022-11-09T22:01:24.363Z,93.29
2022-11-09T22:03:51.235Z,93.10
2022-11-09T22:06:18.274Z,93.16
2022-11-09T22:08:46.053Z,93.38
2022-11-09T22:11:18.068Z,93.34
2022-11-09T22:14:03.228Z,93.62
2022-11-09T22:16:33.906Z,93.69
2022-11-09T22:19:22.376Z,94.01
2022-11-09T22:21:49.030Z,93.71
2022-11-09T22:24:15.750Z,93.94
2022-11-09T22:26:42.388Z,94.15
2022-11-09T22:29:09.107Z,94.29
2022-11-09T22:31:35.844Z,94.32
2022-11-09T22:34:02.633Z,94.61
2022-11-09T22:36:29.296Z,94.82
2022-11-09T22:38:56.221Z,94.92
2022-11-09T22:41:24.682Z,94.97
2022-11-09T22:43:52.635Z,95.15
2022-11-09T22:46:19.425Z,95.05
2022-11-09T22:48:46.237Z,95.07
2022-11-09T22:51:14.736Z,94.98
2022-11-09T22:53:41.916Z,94.92
2022-11-09T22:56:10.701Z,94.92
2022-11-09T22:58:37.321Z,95.14
2022-11-09T23:01:16.307Z,94.83
2022-11-09T23:03:43.488Z,95.00
2022-11-09T23:06:19.408Z,94.71
2022-11-09T23:08:46.732Z,94.65
2022-11-09T23:11:16.309Z,94.53
2022-11-09T23:13:43.701Z,94.47
2022-11-09T23:16:12.038Z,94.76
2022-11-09T23:18:54.399Z,94.74
2022-11-09T23:21:21.877Z,94.67
2022-11-09T23:23:50.934Z,94.45
2022-11-09T23:26:17.681Z,94.77
2022-11-09T23:28:44.394Z,94.92
2022-11-09T23:31:15.137Z,94.79
2022-11-09T23:33:42.011Z,94.80
2022-11-09T23:36:09.790Z,94.76
2022-11-09T23:38:38.265Z,94.56
2022-11-09T23:41:10.648Z,94.36
2022-11-09T23:43:37.411Z,94.31
2022-11-09T23:46:06.350Z,94.36
2022-11-09T23:48:33.348Z,94.21
2022-11-09T23:51:01.263Z,94.27
2022-11-09T23:53:29.547Z,94.23
2022-11-09T23:56:04.677Z,94.33
2022-11-09T23:58:31.496Z,94.29
